sensor_id;sensor_type;location;lat;lon;timestamp;temperature;humidity
18047;DHT22;9148;51.454;13.862;2023-08-07T00:00:30;15.10;99.90
18047;DHT22;9148;51.454;13.862;2023-08-07T00:02:55;15.10;99.90
18047;DHT22;9148;51.454;13.862;2023-08-07T00:05:21;15.10;99.90
18047;DHT22;9148;51.454;13.862;2023-08-07T00:07:47;15.10;99.90
18047;DHT22;9148;51.454;13.862;2023-08-07T00:10:13;15.10;99.90
18047;DHT22;9148;51.454;13.862;2023-08-07T00:12:39;15.10;99.90
18047;DHT22;9148;51.454;13.862;2023-08-07T00:15:05;15.10;99.90
18047;DHT22;9148;51.454;13.862;2023-08-07T00:17:31;15.10;99.90
18047;DHT22;9148;51.454;13.862;2023-08-07T00:19:57;15.10;99.90
18047;DHT22;9148;51.454;13.862;2023-08-07T00:22:23;15.10;99.90
18047;DHT22;9148;51.454;13.862;2023-08-07T00:24:48;15.10;99.90
18047;DHT22;9148;51.454;13.862;2023-08-07T00:27:14;15.10;99.90
18047;DHT22;9148;51.454;13.862;2023-08-07T00:29:40;15.00;99.90
18047;DHT22;9148;51.454;13.862;2023-08-07T00:32:06;15.00;99.90
18047;DHT22;9148;51.454;13.862;2023-08-07T00:34:32;15.00;99.90
18047;DHT22;9148;51.454;13.862;2023-08-07T00:36:58;15.00;99.90
18047;DHT22;9148;51.454;13.862;2023-08-07T00:39:24;15.00;99.90
18047;DHT22;9148;51.454;13.862;2023-08-07T00:41:50;14.90;99.90
18047;DHT22;9148;51.454;13.862;2023-08-07T00:44:15;14.90;99.90
18047;DHT22;9148;51.454;13.862;2023-08-07T00:46:42;14.90;99.90
18047;DHT22;9148;51.454;13.862;2023-08-07T00:49:11;14.90;99.90
18047;DHT22;9148;51.454;13.862;2023-08-07T00:51:38;14.90;99.90
18047;DHT22;9148;51.454;13.862;2023-08-07T00:54:05;14.80;99.90
18047;DHT22;9148;51.454;13.862;2023-08-07T00:56:34;14.80;99.90
18047;DHT22;9148;51.454;13.862;2023-08-07T00:59:00;14.80;99.90
18047;DHT22;9148;51.454;13.862;2023-08-07T01:01:26;14.80;99.90
18047;DHT22;9148;51.454;13.862;2023-08-07T01:03:52;14.80;99.90
18047;DHT22;9148;51.454;13.862;2023-08-07T01:06:18;14.80;99.90
18047;DHT22;9148;51.454;13.862;2023-08-07T01:08:44;14.90;99.90
18047;DHT22;9148;51.454;13.862;2023-08-07T01:14:22;14.80;99.90
18047;DHT22;9148;51.454;13.862;2023-08-07T01:16:57;14.80;99.90
18047;DHT22;9148;51.454;13.862;2023-08-07T01:19:29;14.80;99.90
18047;DHT22;9148;51.454;13.862;2023-08-07T01:22:15;14.80;99.90
18047;DHT22;9148;51.454;13.862;2023-08-07T01:24:43;14.80;99.90
18047;DHT22;9148;51.454;13.862;2023-08-07T01:29:52;14.80;99.90
18047;DHT22;9148;51.454;13.862;2023-08-07T01:32:29;14.80;99.90
18047;DHT22;9148;51.454;13.862;2023-08-07T01:35:03;14.80;99.90
18047;DHT22;9148;51.454;13.862;2023-08-07T01:37:33;14.80;99.90
18047;DHT22;9148;51.454;13.862;2023-08-07T01:40:00;14.80;99.90
18047;DHT22;9148;51.454;13.862;2023-08-07T01:42:29;14.80;99.90
18047;DHT22;9148;51.454;13.862;2023-08-07T01:44:55;14.80;99.90
18047;DHT22;9148;51.454;13.862;2023-08-07T01:47:20;14.80;99.90
18047;DHT22;9148;51.454;13.862;2023-08-07T01:49:46;14.80;99.90
18047;DHT22;9148;51.454;13.862;2023-08-07T01:52:11;14.80;99.90
18047;DHT22;9148;51.454;13.862;2023-08-07T01:54:38;14.80;99.90
18047;DHT22;9148;51.454;13.862;2023-08-07T01:57:03;14.80;99.90
18047;DHT22;9148;51.454;13.862;2023-08-07T01:59:29;14.80;99.90
18047;DHT22;9148;51.454;13.862;2023-08-07T02:01:58;14.80;99.90
18047;DHT22;9148;51.454;13.862;2023-08-07T02:04:24;14.80;99.90
18047;DHT22;9148;51.454;13.862;2023-08-07T02:06:49;14.80;99.90
18047;DHT22;9148;51.454;13.862;2023-08-07T02:09:15;14.80;99.90
18047;DHT22;9148;51.454;13.862;2023-08-07T02:11:40;14.80;99.90
18047;DHT22;9148;51.454;13.862;2023-08-07T02:14:07;14.90;99.90
18047;DHT22;9148;51.454;13.862;2023-08-07T02:16:33;14.90;99.90
18047;DHT22;9148;51.454;13.862;2023-08-07T02:18:59;14.90;99.90
18047;DHT22;9148;51.454;13.862;2023-08-07T02:21:25;15.00;99.90
18047;DHT22;9148;51.454;13.862;2023-08-07T02:23:50;14.90;99.90
18047;DHT22;9148;51.454;13.862;2023-08-07T02:26:16;15.00;99.90
18047;DHT22;9148;51.454;13.862;2023-08-07T02:28:42;15.00;99.90
18047;DHT22;9148;51.454;13.862;2023-08-07T02:31:07;15.00;99.90
18047;DHT22;9148;51.454;13.862;2023-08-07T02:33:33;15.00;99.90
18047;DHT22;9148;51.454;13.862;2023-08-07T02:35:58;15.00;99.90
18047;DHT22;9148;51.454;13.862;2023-08-07T02:38:25;15.00;99.90
18047;DHT22;9148;51.454;13.862;2023-08-07T02:40:51;15.00;99.90
18047;DHT22;9148;51.454;13.862;2023-08-07T02:43:16;15.00;99.90
18047;DHT22;9148;51.454;13.862;2023-08-07T02:45:42;15.00;99.90
18047;DHT22;9148;51.454;13.862;2023-08-07T02:48:08;15.00;99.90
18047;DHT22;9148;51.454;13.862;2023-08-07T02:50:33;15.00;99.90
18047;DHT22;9148;51.454;13.862;2023-08-07T02:53:00;15.00;99.90
18047;DHT22;9148;51.454;13.862;2023-08-07T02:55:25;15.00;99.90
18047;DHT22;9148;51.454;13.862;2023-08-07T02:57:51;15.00;99.90
18047;DHT22;9148;51.454;13.862;2023-08-07T03:00:17;15.00;99.90
18047;DHT22;9148;51.454;13.862;2023-08-07T03:02:43;15.00;99.90
18047;DHT22;9148;51.454;13.862;2023-08-07T03:05:09;15.00;99.90
18047;DHT22;9148;51.454;13.862;2023-08-07T03:07:34;15.00;99.90
18047;DHT22;9148;51.454;13.862;2023-08-07T03:10:00;15.00;99.90
18047;DHT22;9148;51.454;13.862;2023-08-07T03:12:26;15.00;99.90
18047;DHT22;9148;51.454;13.862;2023-08-07T03:14:52;15.00;99.90
18047;DHT22;9148;51.454;13.862;2023-08-07T03:17:17;15.00;99.90
18047;DHT22;9148;51.454;13.862;2023-08-07T03:19:43;15.00;99.90
18047;DHT22;9148;51.454;13.862;2023-08-07T03:22:09;15.00;99.90
18047;DHT22;9148;51.454;13.862;2023-08-07T03:24:35;15.00;99.90
18047;DHT22;9148;51.454;13.862;2023-08-07T03:27:01;15.00;99.90
18047;DHT22;9148;51.454;13.862;2023-08-07T03:29:26;15.00;99.90
18047;DHT22;9148;51.454;13.862;2023-08-07T03:31:52;15.00;99.90
18047;DHT22;9148;51.454;13.862;2023-08-07T03:34:18;14.90;99.90
18047;DHT22;9148;51.454;13.862;2023-08-07T03:36:45;14.90;99.90
18047;DHT22;9148;51.454;13.862;2023-08-07T03:39:10;14.90;99.90
18047;DHT22;9148;51.454;13.862;2023-08-07T03:41:37;14.80;99.90
18047;DHT22;9148;51.454;13.862;2023-08-07T03:44:03;14.80;99.90
18047;DHT22;9148;51.454;13.862;2023-08-07T03:46:29;14.80;99.90
18047;DHT22;9148;51.454;13.862;2023-08-07T03:48:55;14.70;99.90
18047;DHT22;9148;51.454;13.862;2023-08-07T03:51:20;14.70;99.90
18047;DHT22;9148;51.454;13.862;2023-08-07T03:53:46;14.70;99.90
18047;DHT22;9148;51.454;13.862;2023-08-07T03:56:12;14.60;99.90
18047;DHT22;9148;51.454;13.862;2023-08-07T03:58:37;14.60;99.90
18047;DHT22;9148;51.454;13.862;2023-08-07T04:01:03;14.80;99.90
18047;DHT22;9148;51.454;13.862;2023-08-07T04:03:29;14.50;99.90
18047;DHT22;9148;51.454;13.862;2023-08-07T04:05:55;14.50;99.90
18047;DHT22;9148;51.454;13.862;2023-08-07T04:08:21;14.60;99.90
18047;DHT22;9148;51.454;13.862;2023-08-07T04:11:07;14.50;99.90
18047;DHT22;9148;51.454;13.862;2023-08-07T04:13:34;14.50;99.90
18047;DHT22;9148;51.454;13.862;2023-08-07T04:16:00;14.50;99.90
18047;DHT22;9148;51.454;13.862;2023-08-07T04:18:27;14.50;99.90
18047;DHT22;9148;51.454;13.862;2023-08-07T04:20:53;14.50;99.90
18047;DHT22;9148;51.454;13.862;2023-08-07T04:23:20;14.50;99.90
18047;DHT22;9148;51.454;13.862;2023-08-07T04:25:49;14.60;99.90
18047;DHT22;9148;51.454;13.862;2023-08-07T04:28:16;14.60;99.90
18047;DHT22;9148;51.454;13.862;2023-08-07T04:30:43;14.60;99.90
18047;DHT22;9148;51.454;13.862;2023-08-07T04:33:09;14.60;99.90
18047;DHT22;9148;51.454;13.862;2023-08-07T04:35:35;14.60;99.90
18047;DHT22;9148;51.454;13.862;2023-08-07T04:38:01;14.70;99.90
18047;DHT22;9148;51.454;13.862;2023-08-07T04:40:28;14.60;99.90
18047;DHT22;9148;51.454;13.862;2023-08-07T04:42:54;14.60;99.90
18047;DHT22;9148;51.454;13.862;2023-08-07T04:45:20;14.70;99.90
18047;DHT22;9148;51.454;13.862;2023-08-07T04:47:45;14.70;99.90
18047;DHT22;9148;51.454;13.862;2023-08-07T04:50:11;14.70;99.90
18047;DHT22;9148;51.454;13.862;2023-08-07T04:52:37;14.70;99.90
18047;DHT22;9148;51.454;13.862;2023-08-07T04:55:03;14.80;99.90
18047;DHT22;9148;51.454;13.862;2023-08-07T04:57:29;14.80;99.90
18047;DHT22;9148;51.454;13.862;2023-08-07T04:59:55;14.90;99.90
18047;DHT22;9148;51.454;13.862;2023-08-07T05:02:20;14.90;99.90
18047;DHT22;9148;51.454;13.862;2023-08-07T05:04:46;14.90;99.90
18047;DHT22;9148;51.454;13.862;2023-08-07T05:07:12;14.90;99.90
18047;DHT22;9148;51.454;13.862;2023-08-07T05:09:38;15.00;99.90
18047;DHT22;9148;51.454;13.862;2023-08-07T05:12:05;15.00;99.90
18047;DHT22;9148;51.454;13.862;2023-08-07T05:14:32;15.00;99.90
18047;DHT22;9148;51.454;13.862;2023-08-07T05:16:57;15.00;99.90
18047;DHT22;9148;51.454;13.862;2023-08-07T05:19:23;15.10;99.90
18047;DHT22;9148;51.454;13.862;2023-08-07T05:21:49;15.10;99.90
18047;DHT22;9148;51.454;13.862;2023-08-07T05:24:19;15.10;99.90
18047;DHT22;9148;51.454;13.862;2023-08-07T05:26:45;15.20;99.90
18047;DHT22;9148;51.454;13.862;2023-08-07T05:29:11;15.40;99.90
18047;DHT22;9148;51.454;13.862;2023-08-07T05:31:36;15.20;99.90
18047;DHT22;9148;51.454;13.862;2023-08-07T05:34:02;15.30;99.90
18047;DHT22;9148;51.454;13.862;2023-08-07T05:36:28;15.30;99.90
18047;DHT22;9148;51.454;13.862;2023-08-07T05:38:56;15.30;99.90
18047;DHT22;9148;51.454;13.862;2023-08-07T05:41:22;15.40;99.90
18047;DHT22;9148;51.454;13.862;2023-08-07T05:43:48;15.40;99.90
18047;DHT22;9148;51.454;13.862;2023-08-07T05:46:13;15.40;99.90
18047;DHT22;9148;51.454;13.862;2023-08-07T05:48:39;15.50;99.90
18047;DHT22;9148;51.454;13.862;2023-08-07T05:51:05;15.50;99.90
18047;DHT22;9148;51.454;13.862;2023-08-07T05:53:32;15.60;99.90
18047;DHT22;9148;51.454;13.862;2023-08-07T05:55:59;15.60;99.90
18047;DHT22;9148;51.454;13.862;2023-08-07T05:58:24;15.70;99.90
18047;DHT22;9148;51.454;13.862;2023-08-07T06:00:50;15.70;99.90
18047;DHT22;9148;51.454;13.862;2023-08-07T06:03:16;15.80;99.90
18047;DHT22;9148;51.454;13.862;2023-08-07T06:05:41;15.80;99.90
18047;DHT22;9148;51.454;13.862;2023-08-07T06:08:07;15.90;99.90
18047;DHT22;9148;51.454;13.862;2023-08-07T06:10:33;15.90;99.90
18047;DHT22;9148;51.454;13.862;2023-08-07T06:12:58;16.00;99.90
18047;DHT22;9148;51.454;13.862;2023-08-07T06:15:24;16.00;99.90
18047;DHT22;9148;51.454;13.862;2023-08-07T06:17:49;16.00;99.90
18047;DHT22;9148;51.454;13.862;2023-08-07T06:20:17;16.10;99.90
18047;DHT22;9148;51.454;13.862;2023-08-07T06:22:43;16.10;99.90
18047;DHT22;9148;51.454;13.862;2023-08-07T06:25:09;16.20;99.90
18047;DHT22;9148;51.454;13.862;2023-08-07T06:27:34;16.20;99.90
18047;DHT22;9148;51.454;13.862;2023-08-07T06:30:00;16.20;99.90
18047;DHT22;9148;51.454;13.862;2023-08-07T06:32:27;16.20;99.90
18047;DHT22;9148;51.454;13.862;2023-08-07T06:34:53;16.20;99.90
18047;DHT22;9148;51.454;13.862;2023-08-07T06:37:19;16.30;99.90
18047;DHT22;9148;51.454;13.862;2023-08-07T06:39:45;16.30;99.90
18047;DHT22;9148;51.454;13.862;2023-08-07T06:42:12;16.30;99.90
18047;DHT22;9148;51.454;13.862;2023-08-07T06:44:37;16.40;99.90
18047;DHT22;9148;51.454;13.862;2023-08-07T06:47:03;16.50;99.90
18047;DHT22;9148;51.454;13.862;2023-08-07T06:49:29;16.50;99.90
18047;DHT22;9148;51.454;13.862;2023-08-07T06:51:57;16.60;99.90
18047;DHT22;9148;51.454;13.862;2023-08-07T06:54:23;16.60;99.90
18047;DHT22;9148;51.454;13.862;2023-08-07T06:56:49;16.60;99.90
18047;DHT22;9148;51.454;13.862;2023-08-07T06:59:15;16.60;99.90
18047;DHT22;9148;51.454;13.862;2023-08-07T07:01:40;16.70;99.90
18047;DHT22;9148;51.454;13.862;2023-08-07T07:04:06;16.70;99.90
18047;DHT22;9148;51.454;13.862;2023-08-07T07:06:32;16.70;99.90
18047;DHT22;9148;51.454;13.862;2023-08-07T07:08:58;16.80;99.90
18047;DHT22;9148;51.454;13.862;2023-08-07T07:11:24;16.70;99.90
18047;DHT22;9148;51.454;13.862;2023-08-07T07:13:50;16.80;99.90
18047;DHT22;9148;51.454;13.862;2023-08-07T07:16:18;16.90;99.90
18047;DHT22;9148;51.454;13.862;2023-08-07T07:18:44;16.90;99.90
18047;DHT22;9148;51.454;13.862;2023-08-07T07:21:09;17.00;99.90
18047;DHT22;9148;51.454;13.862;2023-08-07T07:23:35;17.00;99.90
18047;DHT22;9148;51.454;13.862;2023-08-07T07:26:01;17.10;99.90
18047;DHT22;9148;51.454;13.862;2023-08-07T07:28:27;17.20;99.90
18047;DHT22;9148;51.454;13.862;2023-08-07T07:30:53;17.20;99.90
18047;DHT22;9148;51.454;13.862;2023-08-07T07:33:18;17.30;99.90
18047;DHT22;9148;51.454;13.862;2023-08-07T07:35:44;17.40;99.90
18047;DHT22;9148;51.454;13.862;2023-08-07T07:38:10;17.60;99.90
18047;DHT22;9148;51.454;13.862;2023-08-07T07:40:36;17.70;99.90
18047;DHT22;9148;51.454;13.862;2023-08-07T07:43:02;17.90;99.90
18047;DHT22;9148;51.454;13.862;2023-08-07T07:45:28;18.00;99.90
18047;DHT22;9148;51.454;13.862;2023-08-07T07:47:54;18.20;99.90
18047;DHT22;9148;51.454;13.862;2023-08-07T07:50:20;18.30;99.90
18047;DHT22;9148;51.454;13.862;2023-08-07T07:52:46;18.40;99.90
18047;DHT22;9148;51.454;13.862;2023-08-07T07:55:12;18.40;99.90
18047;DHT22;9148;51.454;13.862;2023-08-07T07:57:39;18.50;99.90
18047;DHT22;9148;51.454;13.862;2023-08-07T08:00:06;18.50;99.90
18047;DHT22;9148;51.454;13.862;2023-08-07T08:02:41;18.60;99.90
18047;DHT22;9148;51.454;13.862;2023-08-07T08:05:09;18.60;99.90
18047;DHT22;9148;51.454;13.862;2023-08-07T08:07:38;18.70;99.90
18047;DHT22;9148;51.454;13.862;2023-08-07T08:10:07;18.60;99.90
18047;DHT22;9148;51.454;13.862;2023-08-07T08:12:34;18.60;99.90
18047;DHT22;9148;51.454;13.862;2023-08-07T08:15:00;18.50;99.90
18047;DHT22;9148;51.454;13.862;2023-08-07T08:17:27;18.60;99.90
18047;DHT22;9148;51.454;13.862;2023-08-07T08:19:52;18.70;99.90
18047;DHT22;9148;51.454;13.862;2023-08-07T08:22:21;18.90;99.90
18047;DHT22;9148;51.454;13.862;2023-08-07T08:24:46;19.10;99.90
18047;DHT22;9148;51.454;13.862;2023-08-07T08:27:13;19.20;99.90
18047;DHT22;9148;51.454;13.862;2023-08-07T08:29:38;19.30;99.90
18047;DHT22;9148;51.454;13.862;2023-08-07T08:32:04;19.40;99.90
18047;DHT22;9148;51.454;13.862;2023-08-07T08:34:30;19.50;99.90
18047;DHT22;9148;51.454;13.862;2023-08-07T08:36:56;19.70;99.90
18047;DHT22;9148;51.454;13.862;2023-08-07T08:39:22;19.80;99.90
18047;DHT22;9148;51.454;13.862;2023-08-07T08:41:49;19.80;99.90
18047;DHT22;9148;51.454;13.862;2023-08-07T08:44:16;19.90;99.90
18047;DHT22;9148;51.454;13.862;2023-08-07T08:46:42;20.00;99.90
18047;DHT22;9148;51.454;13.862;2023-08-07T08:49:10;20.10;99.90
18047;DHT22;9148;51.454;13.862;2023-08-07T08:51:37;20.20;99.90
18047;DHT22;9148;51.454;13.862;2023-08-07T08:54:03;20.30;99.90
18047;DHT22;9148;51.454;13.862;2023-08-07T08:56:29;20.30;99.90
18047;DHT22;9148;51.454;13.862;2023-08-07T08:58:56;20.10;99.90
18047;DHT22;9148;51.454;13.862;2023-08-07T09:01:21;20.10;99.90
18047;DHT22;9148;51.454;13.862;2023-08-07T09:03:49;19.90;99.90
18047;DHT22;9148;51.454;13.862;2023-08-07T09:06:15;19.80;99.90
18047;DHT22;9148;51.454;13.862;2023-08-07T09:08:43;19.70;99.90
18047;DHT22;9148;51.454;13.862;2023-08-07T09:11:10;19.80;99.90
18047;DHT22;9148;51.454;13.862;2023-08-07T09:13:37;19.70;99.90
18047;DHT22;9148;51.454;13.862;2023-08-07T09:16:04;19.70;99.90
18047;DHT22;9148;51.454;13.862;2023-08-07T09:18:37;19.60;99.90
18047;DHT22;9148;51.454;13.862;2023-08-07T09:21:03;19.70;99.90
18047;DHT22;9148;51.454;13.862;2023-08-07T09:23:28;19.70;99.90
18047;DHT22;9148;51.454;13.862;2023-08-07T09:26:01;19.70;99.90
18047;DHT22;9148;51.454;13.862;2023-08-07T09:28:28;19.60;99.90
18047;DHT22;9148;51.454;13.862;2023-08-07T09:30:55;19.40;99.90
18047;DHT22;9148;51.454;13.862;2023-08-07T09:33:28;19.30;99.90
18047;DHT22;9148;51.454;13.862;2023-08-07T09:35:58;19.20;99.90
18047;DHT22;9148;51.454;13.862;2023-08-07T09:38:30;19.10;99.90
18047;DHT22;9148;51.454;13.862;2023-08-07T09:40:59;19.10;99.90
18047;DHT22;9148;51.454;13.862;2023-08-07T09:43:25;19.10;99.90
18047;DHT22;9148;51.454;13.862;2023-08-07T09:45:50;18.80;99.90
18047;DHT22;9148;51.454;13.862;2023-08-07T09:48:23;18.00;99.90
18047;DHT22;9148;51.454;13.862;2023-08-07T09:50:53;17.80;99.90
18047;DHT22;9148;51.454;13.862;2023-08-07T09:53:25;17.40;99.90
18047;DHT22;9148;51.454;13.862;2023-08-07T09:55:53;17.20;99.90
18047;DHT22;9148;51.454;13.862;2023-08-07T09:58:20;17.20;99.90
18047;DHT22;9148;51.454;13.862;2023-08-07T10:00:47;17.20;99.90
18047;DHT22;9148;51.454;13.862;2023-08-07T10:03:14;17.30;99.90
18047;DHT22;9148;51.454;13.862;2023-08-07T10:05:41;17.40;99.90
18047;DHT22;9148;51.454;13.862;2023-08-07T10:08:07;17.60;99.90
18047;DHT22;9148;51.454;13.862;2023-08-07T10:10:34;17.80;99.90
18047;DHT22;9148;51.454;13.862;2023-08-07T10:13:03;18.00;99.90
18047;DHT22;9148;51.454;13.862;2023-08-07T10:15:30;18.30;99.90
18047;DHT22;9148;51.454;13.862;2023-08-07T10:17:57;18.60;99.90
18047;DHT22;9148;51.454;13.862;2023-08-07T10:20:27;18.80;99.90
18047;DHT22;9148;51.454;13.862;2023-08-07T10:23:00;19.00;99.90
18047;DHT22;9148;51.454;13.862;2023-08-07T10:25:37;19.20;99.90
18047;DHT22;9148;51.454;13.862;2023-08-07T10:28:06;19.30;99.90
18047;DHT22;9148;51.454;13.862;2023-08-07T10:30:34;19.00;99.90
18047;DHT22;9148;51.454;13.862;2023-08-07T10:33:02;18.50;99.90
18047;DHT22;9148;51.454;13.862;2023-08-07T10:35:33;17.90;99.90
18047;DHT22;9148;51.454;13.862;2023-08-07T10:38:06;17.40;99.90
18047;DHT22;9148;51.454;13.862;2023-08-07T10:41:10;16.90;99.90
18047;DHT22;9148;51.454;13.862;2023-08-07T10:46:14;16.20;99.90
18047;DHT22;9148;51.454;13.862;2023-08-07T10:48:42;16.00;99.90
18047;DHT22;9148;51.454;13.862;2023-08-07T10:51:15;15.80;99.90
18047;DHT22;9148;51.454;13.862;2023-08-07T10:53:49;15.80;99.90
18047;DHT22;9148;51.454;13.862;2023-08-07T10:56:30;16.00;99.90
18047;DHT22;9148;51.454;13.862;2023-08-07T10:58:57;16.10;99.90
18047;DHT22;9148;51.454;13.862;2023-08-07T11:01:39;16.20;99.90
18047;DHT22;9148;51.454;13.862;2023-08-07T11:06:38;16.90;99.90
18047;DHT22;9148;51.454;13.862;2023-08-07T11:09:06;18.30;99.90
18047;DHT22;9148;51.454;13.862;2023-08-07T11:14:07;17.90;99.90
18047;DHT22;9148;51.454;13.862;2023-08-07T11:16:34;18.20;99.90
18047;DHT22;9148;51.454;13.862;2023-08-07T11:19:00;18.40;99.90
18047;DHT22;9148;51.454;13.862;2023-08-07T11:21:26;18.70;99.90
18047;DHT22;9148;51.454;13.862;2023-08-07T11:23:52;19.00;99.90
18047;DHT22;9148;51.454;13.862;2023-08-07T11:26:18;19.30;99.90
18047;DHT22;9148;51.454;13.862;2023-08-07T11:28:47;19.50;99.90
18047;DHT22;9148;51.454;13.862;2023-08-07T11:31:13;19.90;99.90
18047;DHT22;9148;51.454;13.862;2023-08-07T11:33:40;20.30;99.90
18047;DHT22;9148;51.454;13.862;2023-08-07T11:36:13;20.60;99.90
18047;DHT22;9148;51.454;13.862;2023-08-07T11:38:41;20.90;99.90
18047;DHT22;9148;51.454;13.862;2023-08-07T11:41:09;21.00;99.90
18047;DHT22;9148;51.454;13.862;2023-08-07T11:43:36;21.00;99.90
18047;DHT22;9148;51.454;13.862;2023-08-07T11:46:04;21.00;99.90
18047;DHT22;9148;51.454;13.862;2023-08-07T11:48:32;20.90;99.90
18047;DHT22;9148;51.454;13.862;2023-08-07T11:50:59;20.80;99.90
18047;DHT22;9148;51.454;13.862;2023-08-07T11:53:34;20.60;99.90
18047;DHT22;9148;51.454;13.862;2023-08-07T11:56:02;20.50;99.90
18047;DHT22;9148;51.454;13.862;2023-08-07T11:58:44;20.40;99.90
18047;DHT22;9148;51.454;13.862;2023-08-07T12:01:18;20.30;99.90
18047;DHT22;9148;51.454;13.862;2023-08-07T12:06:33;20.40;99.90
18047;DHT22;9148;51.454;13.862;2023-08-07T12:09:00;20.50;99.90
18047;DHT22;9148;51.454;13.862;2023-08-07T12:11:29;20.70;99.90
18047;DHT22;9148;51.454;13.862;2023-08-07T12:13:55;20.80;99.90
18047;DHT22;9148;51.454;13.862;2023-08-07T12:16:21;20.70;99.90
18047;DHT22;9148;51.454;13.862;2023-08-07T12:18:55;20.60;99.90
18047;DHT22;9148;51.454;13.862;2023-08-07T12:21:22;20.50;99.90
18047;DHT22;9148;51.454;13.862;2023-08-07T12:23:54;20.30;99.90
18047;DHT22;9148;51.454;13.862;2023-08-07T12:26:20;20.10;99.90
18047;DHT22;9148;51.454;13.862;2023-08-07T12:28:46;19.90;99.90
18047;DHT22;9148;51.454;13.862;2023-08-07T12:31:12;19.70;99.90
18047;DHT22;9148;51.454;13.862;2023-08-07T12:33:37;19.70;99.90
18047;DHT22;9148;51.454;13.862;2023-08-07T12:36:03;19.80;99.90
18047;DHT22;9148;51.454;13.862;2023-08-07T12:38:29;19.90;99.90
18047;DHT22;9148;51.454;13.862;2023-08-07T12:40:55;20.00;99.90
18047;DHT22;9148;51.454;13.862;2023-08-07T12:43:21;20.10;99.90
18047;DHT22;9148;51.454;13.862;2023-08-07T12:45:47;20.20;99.90
18047;DHT22;9148;51.454;13.862;2023-08-07T12:48:13;20.40;99.90
18047;DHT22;9148;51.454;13.862;2023-08-07T12:50:39;20.50;99.90
18047;DHT22;9148;51.454;13.862;2023-08-07T12:53:05;20.80;99.90
18047;DHT22;9148;51.454;13.862;2023-08-07T12:55:31;21.10;99.90
18047;DHT22;9148;51.454;13.862;2023-08-07T12:57:57;21.40;99.90
18047;DHT22;9148;51.454;13.862;2023-08-07T13:00:23;21.40;99.90
18047;DHT22;9148;51.454;13.862;2023-08-07T13:02:50;21.40;99.90
18047;DHT22;9148;51.454;13.862;2023-08-07T13:05:16;21.10;99.90
18047;DHT22;9148;51.454;13.862;2023-08-07T13:07:43;20.40;99.90
18047;DHT22;9148;51.454;13.862;2023-08-07T13:10:11;19.50;99.90
18047;DHT22;9148;51.454;13.862;2023-08-07T13:12:40;18.80;99.90
18047;DHT22;9148;51.454;13.862;2023-08-07T13:15:08;18.30;99.90
18047;DHT22;9148;51.454;13.862;2023-08-07T13:17:36;18.00;99.90
18047;DHT22;9148;51.454;13.862;2023-08-07T13:20:02;17.90;99.90
18047;DHT22;9148;51.454;13.862;2023-08-07T13:22:37;18.10;99.90
18047;DHT22;9148;51.454;13.862;2023-08-07T13:25:04;18.40;99.90
18047;DHT22;9148;51.454;13.862;2023-08-07T13:27:31;18.30;99.90
18047;DHT22;9148;51.454;13.862;2023-08-07T13:29:57;18.40;99.90
18047;DHT22;9148;51.454;13.862;2023-08-07T13:32:22;18.50;99.90
18047;DHT22;9148;51.454;13.862;2023-08-07T13:34:48;18.60;99.90
18047;DHT22;9148;51.454;13.862;2023-08-07T13:37:14;18.70;99.90
18047;DHT22;9148;51.454;13.862;2023-08-07T13:39:40;18.80;99.90
18047;DHT22;9148;51.454;13.862;2023-08-07T13:42:06;18.50;99.90
18047;DHT22;9148;51.454;13.862;2023-08-07T13:44:32;18.20;99.90
18047;DHT22;9148;51.454;13.862;2023-08-07T13:46:58;17.90;99.90
18047;DHT22;9148;51.454;13.862;2023-08-07T13:49:23;17.80;99.90
18047;DHT22;9148;51.454;13.862;2023-08-07T13:51:49;17.70;99.90
18047;DHT22;9148;51.454;13.862;2023-08-07T13:54:15;17.80;99.90
18047;DHT22;9148;51.454;13.862;2023-08-07T13:56:41;17.90;99.90
18047;DHT22;9148;51.454;13.862;2023-08-07T13:59:07;18.00;99.90
18047;DHT22;9148;51.454;13.862;2023-08-07T14:01:34;18.00;99.90
18047;DHT22;9148;51.454;13.862;2023-08-07T14:04:01;18.20;99.90
18047;DHT22;9148;51.454;13.862;2023-08-07T14:06:27;18.40;99.90
18047;DHT22;9148;51.454;13.862;2023-08-07T14:08:53;18.60;99.90
18047;DHT22;9148;51.454;13.862;2023-08-07T14:11:18;18.80;99.90
18047;DHT22;9148;51.454;13.862;2023-08-07T14:13:45;19.00;99.90
18047;DHT22;9148;51.454;13.862;2023-08-07T14:16:12;19.20;99.90
18047;DHT22;9148;51.454;13.862;2023-08-07T14:18:37;19.40;99.90
18047;DHT22;9148;51.454;13.862;2023-08-07T14:21:03;19.50;99.90
18047;DHT22;9148;51.454;13.862;2023-08-07T14:23:29;19.60;99.90
18047;DHT22;9148;51.454;13.862;2023-08-07T14:25:56;19.60;99.90
18047;DHT22;9148;51.454;13.862;2023-08-07T14:28:21;19.70;99.90
18047;DHT22;9148;51.454;13.862;2023-08-07T14:30:48;19.60;99.90
18047;DHT22;9148;51.454;13.862;2023-08-07T14:33:13;19.60;99.90
18047;DHT22;9148;51.454;13.862;2023-08-07T14:35:39;19.70;99.90
18047;DHT22;9148;51.454;13.862;2023-08-07T14:38:05;19.70;99.90
18047;DHT22;9148;51.454;13.862;2023-08-07T14:40:30;19.80;99.90
18047;DHT22;9148;51.454;13.862;2023-08-07T14:42:56;19.90;99.90
18047;DHT22;9148;51.454;13.862;2023-08-07T14:45:22;20.10;99.90
18047;DHT22;9148;51.454;13.862;2023-08-07T14:47:49;20.10;99.90
18047;DHT22;9148;51.454;13.862;2023-08-07T14:50:15;20.10;99.90
18047;DHT22;9148;51.454;13.862;2023-08-07T14:52:44;20.00;99.90
18047;DHT22;9148;51.454;13.862;2023-08-07T14:55:10;19.90;99.90
18047;DHT22;9148;51.454;13.862;2023-08-07T14:57:35;19.80;99.90
18047;DHT22;9148;51.454;13.862;2023-08-07T15:00:01;19.70;99.90
18047;DHT22;9148;51.454;13.862;2023-08-07T15:02:27;19.60;99.90
18047;DHT22;9148;51.454;13.862;2023-08-07T15:04:53;19.50;99.90
18047;DHT22;9148;51.454;13.862;2023-08-07T15:07:18;19.40;99.90
18047;DHT22;9148;51.454;13.862;2023-08-07T15:09:44;19.30;99.90
18047;DHT22;9148;51.454;13.862;2023-08-07T15:12:10;19.10;99.90
18047;DHT22;9148;51.454;13.862;2023-08-07T15:14:36;18.80;99.90
18047;DHT22;9148;51.454;13.862;2023-08-07T15:17:02;18.50;99.90
18047;DHT22;9148;51.454;13.862;2023-08-07T15:19:27;18.20;99.90
18047;DHT22;9148;51.454;13.862;2023-08-07T15:21:53;18.00;99.90
18047;DHT22;9148;51.454;13.862;2023-08-07T15:24:19;17.80;99.90
18047;DHT22;9148;51.454;13.862;2023-08-07T15:26:45;17.60;99.90
18047;DHT22;9148;51.454;13.862;2023-08-07T15:29:11;17.40;99.90
18047;DHT22;9148;51.454;13.862;2023-08-07T15:31:37;17.30;99.90
18047;DHT22;9148;51.454;13.862;2023-08-07T15:34:02;17.30;99.90
18047;DHT22;9148;51.454;13.862;2023-08-07T15:36:28;17.30;99.90
18047;DHT22;9148;51.454;13.862;2023-08-07T15:38:54;17.30;99.90
18047;DHT22;9148;51.454;13.862;2023-08-07T15:41:20;17.40;99.90
18047;DHT22;9148;51.454;13.862;2023-08-07T15:43:46;17.40;99.90